sensor_id;sensor_type;location;lat;lon;timestamp;temperature;humidity
15922;DHT22;8060;50.948;3.146;2023-04-16T05:07:04;7.60;99.90
15922;DHT22;8060;50.948;3.146;2023-04-16T05:09:32;7.50;99.90
15922;DHT22;8060;50.948;3.146;2023-04-16T05:12:01;7.50;99.90
15922;DHT22;8060;50.948;3.146;2023-04-16T05:14:29;7.60;99.90
15922;DHT22;8060;50.948;3.146;2023-04-16T05:16:57;7.60;99.90
15922;DHT22;8060;50.948;3.146;2023-04-16T05:19:25;7.60;99.90
15922;DHT22;8060;50.948;3.146;2023-04-16T05:21:53;7.60;99.90
15922;DHT22;8060;50.948;3.146;2023-04-16T05:24:23;7.70;99.90
15922;DHT22;8060;50.948;3.146;2023-04-16T05:26:51;7.70;99.90
15922;DHT22;8060;50.948;3.146;2023-04-16T05:29:19;7.70;99.90
15922;DHT22;8060;50.948;3.146;2023-04-16T05:31:47;7.70;99.90
15922;DHT22;8060;50.948;3.146;2023-04-16T05:34:15;7.80;99.90
15922;DHT22;8060;50.948;3.146;2023-04-16T05:36:43;7.80;99.90
15922;DHT22;8060;50.948;3.146;2023-04-16T05:39:11;7.90;99.90
15922;DHT22;8060;50.948;3.146;2023-04-16T05:41:41;7.90;99.90
15922;DHT22;8060;50.948;3.146;2023-04-16T05:44:09;7.90;99.90
15922;DHT22;8060;50.948;3.146;2023-04-16T05:46:37;8.00;99.90
15922;DHT22;8060;50.948;3.146;2023-04-16T05:49:05;8.00;99.90
15922;DHT22;8060;50.948;3.146;2023-04-16T05:51:34;8.10;99.90
15922;DHT22;8060;50.948;3.146;2023-04-16T05:54:02;8.10;99.90
15922;DHT22;8060;50.948;3.146;2023-04-16T05:56:30;8.20;99.90
15922;DHT22;8060;50.948;3.146;2023-04-16T05:59:00;8.30;99.90
15922;DHT22;8060;50.948;3.146;2023-04-16T06:01:28;8.30;99.90
15922;DHT22;8060;50.948;3.146;2023-04-16T06:03:57;8.40;99.90
15922;DHT22;8060;50.948;3.146;2023-04-16T06:06:25;8.50;99.90
15922;DHT22;8060;50.948;3.146;2023-04-16T06:08:53;8.50;99.90
15922;DHT22;8060;50.948;3.146;2023-04-16T06:11:21;8.60;99.90
15922;DHT22;8060;50.948;3.146;2023-04-16T06:13:49;8.70;99.90
15922;DHT22;8060;50.948;3.146;2023-04-16T06:16:19;8.80;99.90
15922;DHT22;8060;50.948;3.146;2023-04-16T06:18:47;8.90;99.90
15922;DHT22;8060;50.948;3.146;2023-04-16T06:21:15;8.90;99.90
15922;DHT22;8060;50.948;3.146;2023-04-16T06:23:43;8.90;99.90
15922;DHT22;8060;50.948;3.146;2023-04-16T06:26:11;9.10;99.90
15922;DHT22;8060;50.948;3.146;2023-04-16T06:28:39;9.10;99.90
15922;DHT22;8060;50.948;3.146;2023-04-16T06:31:07;9.10;99.90
15922;DHT22;8060;50.948;3.146;2023-04-16T06:33:37;9.10;99.90
15922;DHT22;8060;50.948;3.146;2023-04-16T06:36:05;9.10;99.90
15922;DHT22;8060;50.948;3.146;2023-04-16T06:38:35;9.20;99.90
15922;DHT22;8060;50.948;3.146;2023-04-16T06:41:04;9.30;99.90
15922;DHT22;8060;50.948;3.146;2023-04-16T06:43:32;9.40;99.90
15922;DHT22;8060;50.948;3.146;2023-04-16T06:46:00;9.40;99.90
15922;DHT22;8060;50.948;3.146;2023-04-16T06:48:28;9.50;99.90
15922;DHT22;8060;50.948;3.146;2023-04-16T06:50:57;9.50;99.90
15922;DHT22;8060;50.948;3.146;2023-04-16T06:53:25;9.60;99.90
15922;DHT22;8060;50.948;3.146;2023-04-16T06:55:53;9.70;99.90
15922;DHT22;8060;50.948;3.146;2023-04-16T06:58:22;9.80;99.90
15922;DHT22;8060;50.948;3.146;2023-04-16T07:00:50;10.00;99.90
15922;DHT22;8060;50.948;3.146;2023-04-16T07:03:18;10.10;99.90
15922;DHT22;8060;50.948;3.146;2023-04-16T07:05:46;10.20;99.90
15922;DHT22;8060;50.948;3.146;2023-04-16T07:08:16;10.30;99.90
15922;DHT22;8060;50.948;3.146;2023-04-16T07:10:44;10.40;99.90
15922;DHT22;8060;50.948;3.146;2023-04-16T07:13:12;10.40;99.90
15922;DHT22;8060;50.948;3.146;2023-04-16T07:15:40;10.50;99.90
15922;DHT22;8060;50.948;3.146;2023-04-16T07:18:08;10.50;99.90
15922;DHT22;8060;50.948;3.146;2023-04-16T07:20:36;10.60;99.90
15922;DHT22;8060;50.948;3.146;2023-04-16T07:23:05;10.70;99.90
15922;DHT22;8060;50.948;3.146;2023-04-16T07:25:34;10.70;99.90
15922;DHT22;8060;50.948;3.146;2023-04-16T07:28:02;10.80;99.90
15922;DHT22;8060;50.948;3.146;2023-04-16T07:30:31;11.00;99.90
15922;DHT22;8060;50.948;3.146;2023-04-16T07:33:01;10.90;99.90
15922;DHT22;8060;50.948;3.146;2023-04-16T07:35:29;11.00;99.90
15922;DHT22;8060;50.948;3.146;2023-04-16T07:37:58;11.20;99.90
15922;DHT22;8060;50.948;3.146;2023-04-16T07:40:26;11.30;99.90
15922;DHT22;8060;50.948;3.146;2023-04-16T07:42:55;11.40;99.90
15922;DHT22;8060;50.948;3.146;2023-04-16T07:45:23;11.60;99.90
15922;DHT22;8060;50.948;3.146;2023-04-16T07:47:52;11.70;99.90
15922;DHT22;8060;50.948;3.146;2023-04-16T07:50:20;12.00;99.90
15922;DHT22;8060;50.948;3.146;2023-04-16T07:52:48;12.20;99.90
15922;DHT22;8060;50.948;3.146;2023-04-16T07:55:16;12.20;99.90
15922;DHT22;8060;50.948;3.146;2023-04-16T07:57:44;12.30;99.90
15922;DHT22;8060;50.948;3.146;2023-04-16T08:00:14;12.30;99.90
15922;DHT22;8060;50.948;3.146;2023-04-16T08:02:42;12.40;99.90
15922;DHT22;8060;50.948;3.146;2023-04-16T08:05:11;12.50;99.90
15922;DHT22;8060;50.948;3.146;2023-04-16T08:07:40;12.50;99.90
15922;DHT22;8060;50.948;3.146;2023-04-16T08:10:08;12.60;99.90
15922;DHT22;8060;50.948;3.146;2023-04-16T08:12:36;12.70;99.90
15922;DHT22;8060;50.948;3.146;2023-04-16T08:15:06;12.70;99.90
15922;DHT22;8060;50.948;3.146;2023-04-16T08:17:35;12.70;99.90
15922;DHT22;8060;50.948;3.146;2023-04-16T08:20:04;12.70;99.90
15922;DHT22;8060;50.948;3.146;2023-04-16T08:22:33;12.70;99.90
15922;DHT22;8060;50.948;3.146;2023-04-16T08:25:02;12.80;99.90
15922;DHT22;8060;50.948;3.146;2023-04-16T08:27:30;12.80;99.90
15922;DHT22;8060;50.948;3.146;2023-04-16T08:29:58;12.90;99.90
15922;DHT22;8060;50.948;3.146;2023-04-16T08:32:26;13.00;99.90
15922;DHT22;8060;50.948;3.146;2023-04-16T08:34:56;13.10;99.90
15922;DHT22;8060;50.948;3.146;2023-04-16T08:37:24;13.30;99.90
15922;DHT22;8060;50.948;3.146;2023-04-16T08:39:52;13.50;99.90
15922;DHT22;8060;50.948;3.146;2023-04-16T08:42:23;13.50;99.90
15922;DHT22;8060;50.948;3.146;2023-04-16T08:45:05;13.50;99.90
15922;DHT22;8060;50.948;3.146;2023-04-16T08:47:34;13.60;99.90
15922;DHT22;8060;50.948;3.146;2023-04-16T08:50:05;13.60;99.90
15922;DHT22;8060;50.948;3.146;2023-04-16T08:52:37;13.80;99.90
15922;DHT22;8060;50.948;3.146;2023-04-16T08:55:12;13.90;99.90
15922;DHT22;8060;50.948;3.146;2023-04-16T08:57:46;13.90;99.90
15922;DHT22;8060;50.948;3.146;2023-04-16T09:00:15;14.00;99.90
15922;DHT22;8060;50.948;3.146;2023-04-16T09:02:46;14.00;99.90
15922;DHT22;8060;50.948;3.146;2023-04-16T09:05:16;14.10;99.90
15922;DHT22;8060;50.948;3.146;2023-04-16T09:07:45;14.20;99.90
15922;DHT22;8060;50.948;3.146;2023-04-16T09:10:14;14.30;99.90
15922;DHT22;8060;50.948;3.146;2023-04-16T09:12:42;14.50;99.90
15922;DHT22;8060;50.948;3.146;2023-04-16T09:15:12;14.70;99.90
15922;DHT22;8060;50.948;3.146;2023-04-16T09:17:40;15.00;99.90
15922;DHT22;8060;50.948;3.146;2023-04-16T09:20:09;15.20;99.90
15922;DHT22;8060;50.948;3.146;2023-04-16T09:22:39;15.40;99.90
15922;DHT22;8060;50.948;3.146;2023-04-16T09:25:09;15.60;99.90
15922;DHT22;8060;50.948;3.146;2023-04-16T09:27:38;15.70;99.90
15922;DHT22;8060;50.948;3.146;2023-04-16T09:30:21;15.60;99.90
15922;DHT22;8060;50.948;3.146;2023-04-16T09:32:51;15.70;99.90
15922;DHT22;8060;50.948;3.146;2023-04-16T09:35:20;15.80;99.90
15922;DHT22;8060;50.948;3.146;2023-04-16T09:37:56;15.70;99.90
15922;DHT22;8060;50.948;3.146;2023-04-16T09:40:25;15.60;99.90
15922;DHT22;8060;50.948;3.146;2023-04-16T09:42:56;15.70;99.90
15922;DHT22;8060;50.948;3.146;2023-04-16T09:45:30;16.00;99.90
15922;DHT22;8060;50.948;3.146;2023-04-16T09:48:02;16.20;99.90
15922;DHT22;8060;50.948;3.146;2023-04-16T09:50:31;16.20;99.90
15922;DHT22;8060;50.948;3.146;2023-04-16T09:53:02;16.40;99.90
15922;DHT22;8060;50.948;3.146;2023-04-16T09:55:31;16.40;99.90
15922;DHT22;8060;50.948;3.146;2023-04-16T09:57:59;16.60;99.90
15922;DHT22;8060;50.948;3.146;2023-04-16T10:00:28;16.80;99.90
15922;DHT22;8060;50.948;3.146;2023-04-16T10:03:04;16.60;99.90
15922;DHT22;8060;50.948;3.146;2023-04-16T10:05:33;16.70;99.90
15922;DHT22;8060;50.948;3.146;2023-04-16T10:08:10;16.80;99.90
15922;DHT22;8060;50.948;3.146;2023-04-16T10:10:39;17.00;99.90
15922;DHT22;8060;50.948;3.146;2023-04-16T10:13:08;17.10;99.90
15922;DHT22;8060;50.948;3.146;2023-04-16T10:15:38;17.00;99.90
15922;DHT22;8060;50.948;3.146;2023-04-16T10:18:07;17.00;99.90
15922;DHT22;8060;50.948;3.146;2023-04-16T10:20:36;16.90;99.90
15922;DHT22;8060;50.948;3.146;2023-04-16T10:23:06;17.00;99.90
15922;DHT22;8060;50.948;3.146;2023-04-16T10:25:34;17.10;99.90
15922;DHT22;8060;50.948;3.146;2023-04-16T10:28:03;17.30;99.90
15922;DHT22;8060;50.948;3.146;2023-04-16T10:30:32;17.20;99.90
15922;DHT22;8060;50.948;3.146;2023-04-16T10:33:01;17.20;99.90
15922;DHT22;8060;50.948;3.146;2023-04-16T10:35:30;17.10;99.90
15922;DHT22;8060;50.948;3.146;2023-04-16T10:38:21;17.30;99.90
15922;DHT22;8060;50.948;3.146;2023-04-16T10:40:58;17.60;99.90
15922;DHT22;8060;50.948;3.146;2023-04-16T10:43:27;17.80;99.90
15922;DHT22;8060;50.948;3.146;2023-04-16T10:45:55;18.00;99.90
15922;DHT22;8060;50.948;3.146;2023-04-16T10:48:23;18.10;99.90
15922;DHT22;8060;50.948;3.146;2023-04-16T10:50:58;18.30;99.90
15922;DHT22;8060;50.948;3.146;2023-04-16T10:53:28;18.50;99.90
15922;DHT22;8060;50.948;3.146;2023-04-16T10:55:57;18.70;99.90
15922;DHT22;8060;50.948;3.146;2023-04-16T10:58:28;18.60;99.90
15922;DHT22;8060;50.948;3.146;2023-04-16T11:00:58;18.70;99.90
15922;DHT22;8060;50.948;3.146;2023-04-16T11:03:29;18.90;99.90
15922;DHT22;8060;50.948;3.146;2023-04-16T11:06:09;18.80;99.90
15922;DHT22;8060;50.948;3.146;2023-04-16T11:08:40;19.00;99.90
15922;DHT22;8060;50.948;3.146;2023-04-16T11:11:21;19.20;99.90
15922;DHT22;8060;50.948;3.146;2023-04-16T11:13:54;19.40;99.90
15922;DHT22;8060;50.948;3.146;2023-04-16T11:16:24;19.50;99.90
15922;DHT22;8060;50.948;3.146;2023-04-16T11:18:53;19.70;99.90
15922;DHT22;8060;50.948;3.146;2023-04-16T11:21:23;19.60;99.90
15922;DHT22;8060;50.948;3.146;2023-04-16T11:23:53;19.80;99.90
15922;DHT22;8060;50.948;3.146;2023-04-16T11:26:23;19.80;99.90
15922;DHT22;8060;50.948;3.146;2023-04-16T11:28:53;20.00;99.90
15922;DHT22;8060;50.948;3.146;2023-04-16T11:31:22;19.90;99.90
15922;DHT22;8060;50.948;3.146;2023-04-16T11:33:50;19.80;99.90
15922;DHT22;8060;50.948;3.146;2023-04-16T11:36:18;19.90;99.90
15922;DHT22;8060;50.948;3.146;2023-04-16T11:38:46;19.70;99.90
15922;DHT22;8060;50.948;3.146;2023-04-16T11:41:20;19.60;99.90
15922;DHT22;8060;50.948;3.146;2023-04-16T11:43:48;19.80;99.90
15922;DHT22;8060;50.948;3.146;2023-04-16T11:46:16;19.70;99.90
15922;DHT22;8060;50.948;3.146;2023-04-16T11:48:54;19.70;99.90
15922;DHT22;8060;50.948;3.146;2023-04-16T11:51:22;19.70;99.90
15922;DHT22;8060;50.948;3.146;2023-04-16T11:53:51;20.00;99.90
15922;DHT22;8060;50.948;3.146;2023-04-16T11:56:28;20.10;99.90
15922;DHT22;8060;50.948;3.146;2023-04-16T11:59:10;20.20;99.90
15922;DHT22;8060;50.948;3.146;2023-04-16T12:01:40;20.30;99.90
15922;DHT22;8060;50.948;3.146;2023-04-16T12:04:08;20.40;99.90
15922;DHT22;8060;50.948;3.146;2023-04-16T12:06:37;20.60;99.90
15922;DHT22;8060;50.948;3.146;2023-04-16T12:09:24;20.60;99.90
15922;DHT22;8060;50.948;3.146;2023-04-16T12:11:54;20.60;99.90
15922;DHT22;8060;50.948;3.146;2023-04-16T12:14:22;20.70;99.90
15922;DHT22;8060;50.948;3.146;2023-04-16T12:16:50;20.70;99.90
15922;DHT22;8060;50.948;3.146;2023-04-16T12:19:18;20.80;99.90
15922;DHT22;8060;50.948;3.146;2023-04-16T12:21:48;20.70;99.90
15922;DHT22;8060;50.948;3.146;2023-04-16T12:24:17;21.10;99.90
15922;DHT22;8060;50.948;3.146;2023-04-16T12:26:51;21.20;99.90
15922;DHT22;8060;50.948;3.146;2023-04-16T12:29:24;21.40;99.90
15922;DHT22;8060;50.948;3.146;2023-04-16T12:31:53;21.50;99.90
15922;DHT22;8060;50.948;3.146;2023-04-16T12:34:21;21.60;99.90
15922;DHT22;8060;50.948;3.146;2023-04-16T12:37:09;21.60;99.90
15922;DHT22;8060;50.948;3.146;2023-04-16T12:39:39;21.60;99.90
15922;DHT22;8060;50.948;3.146;2023-04-16T12:42:07;21.60;99.90
15922;DHT22;8060;50.948;3.146;2023-04-16T12:44:38;21.90;99.90
15922;DHT22;8060;50.948;3.146;2023-04-16T12:47:06;21.90;99.90
15922;DHT22;8060;50.948;3.146;2023-04-16T12:49:35;21.70;99.90
15922;DHT22;8060;50.948;3.146;2023-04-16T12:52:03;21.70;99.90
15922;DHT22;8060;50.948;3.146;2023-04-16T12:54:32;21.90;99.90
15922;DHT22;8060;50.948;3.146;2023-04-16T12:57:00;22.10;99.90
15922;DHT22;8060;50.948;3.146;2023-04-16T12:59:28;22.20;99.90
15922;DHT22;8060;50.948;3.146;2023-04-16T13:01:59;22.50;99.90
15922;DHT22;8060;50.948;3.146;2023-04-16T13:04:28;22.30;99.90
15922;DHT22;8060;50.948;3.146;2023-04-16T13:06:56;22.20;99.90
15922;DHT22;8060;50.948;3.146;2023-04-16T13:09:24;22.40;99.90
15922;DHT22;8060;50.948;3.146;2023-04-16T13:11:52;22.40;99.90
15922;DHT22;8060;50.948;3.146;2023-04-16T13:14:20;22.20;99.90
15922;DHT22;8060;50.948;3.146;2023-04-16T13:16:48;22.30;99.90
15922;DHT22;8060;50.948;3.146;2023-04-16T13:19:18;22.50;99.90
15922;DHT22;8060;50.948;3.146;2023-04-16T13:21:46;22.10;99.90
15922;DHT22;8060;50.948;3.146;2023-04-16T13:24:14;21.80;99.90
15922;DHT22;8060;50.948;3.146;2023-04-16T13:26:43;21.60;99.90
15922;DHT22;8060;50.948;3.146;2023-04-16T13:29:11;21.90;99.90
15922;DHT22;8060;50.948;3.146;2023-04-16T13:31:39;22.10;99.90
15922;DHT22;8060;50.948;3.146;2023-04-16T13:34:07;21.70;99.90
15922;DHT22;8060;50.948;3.146;2023-04-16T13:36:37;21.60;99.90
15922;DHT22;8060;50.948;3.146;2023-04-16T13:39:05;21.60;99.90
15922;DHT22;8060;50.948;3.146;2023-04-16T13:41:37;21.60;99.90
15922;DHT22;8060;50.948;3.146;2023-04-16T13:44:06;21.90;99.90
15922;DHT22;8060;50.948;3.146;2023-04-16T13:46:34;21.80;99.90
15922;DHT22;8060;50.948;3.146;2023-04-16T13:49:02;22.10;99.90
15922;DHT22;8060;50.948;3.146;2023-04-16T13:51:30;21.90;99.90
15922;DHT22;8060;50.948;3.146;2023-04-16T13:53:59;21.80;99.90
15922;DHT22;8060;50.948;3.146;2023-04-16T13:56:27;21.60;99.90
15922;DHT22;8060;50.948;3.146;2023-04-16T13:58:56;21.60;99.90
15922;DHT22;8060;50.948;3.146;2023-04-16T14:01:24;21.80;99.90
15922;DHT22;8060;50.948;3.146;2023-04-16T14:03:52;21.70;99.90
15922;DHT22;8060;50.948;3.146;2023-04-16T14:06:20;21.50;99.90
15922;DHT22;8060;50.948;3.146;2023-04-16T14:08:48;21.20;99.90
15922;DHT22;8060;50.948;3.146;2023-04-16T14:11:18;21.30;99.90
15922;DHT22;8060;50.948;3.146;2023-04-16T14:13:46;21.40;99.90
15922;DHT22;8060;50.948;3.146;2023-04-16T14:16:15;21.40;99.90
15922;DHT22;8060;50.948;3.146;2023-04-16T14:18:43;21.40;99.90
15922;DHT22;8060;50.948;3.146;2023-04-16T14:21:12;21.40;99.90
15922;DHT22;8060;50.948;3.146;2023-04-16T14:23:40;21.20;99.90
15922;DHT22;8060;50.948;3.146;2023-04-16T14:26:08;21.10;99.90
15922;DHT22;8060;50.948;3.146;2023-04-16T14:28:37;21.20;99.90
15922;DHT22;8060;50.948;3.146;2023-04-16T14:31:06;21.00;99.90
15922;DHT22;8060;50.948;3.146;2023-04-16T14:33:34;20.80;99.90
15922;DHT22;8060;50.948;3.146;2023-04-16T14:36:03;21.00;99.90
15922;DHT22;8060;50.948;3.146;2023-04-16T14:38:31;20.80;99.90
15922;DHT22;8060;50.948;3.146;2023-04-16T14:40:59;20.70;99.90
15922;DHT22;8060;50.948;3.146;2023-04-16T14:43:27;20.70;99.90
15922;DHT22;8060;50.948;3.146;2023-04-16T14:45:57;20.60;99.90
15922;DHT22;8060;50.948;3.146;2023-04-16T14:48:26;20.20;99.90
15922;DHT22;8060;50.948;3.146;2023-04-16T14:50:54;19.90;99.90
15922;DHT22;8060;50.948;3.146;2023-04-16T14:53:22;19.80;99.90
15922;DHT22;8060;50.948;3.146;2023-04-16T14:55:51;19.60;99.90
15922;DHT22;8060;50.948;3.146;2023-04-16T14:58:21;19.40;99.90
15922;DHT22;8060;50.948;3.146;2023-04-16T15:00:49;19.50;99.90
15922;DHT22;8060;50.948;3.146;2023-04-16T15:03:19;19.40;99.90
15922;DHT22;8060;50.948;3.146;2023-04-16T15:05:47;19.30;99.90
15922;DHT22;8060;50.948;3.146;2023-04-16T15:08:21;19.00;99.90
15922;DHT22;8060;50.948;3.146;2023-04-16T15:10:49;18.90;99.90
15922;DHT22;8060;50.948;3.146;2023-04-16T15:13:18;19.10;99.90
15922;DHT22;8060;50.948;3.146;2023-04-16T15:15:46;19.00;99.90
15922;DHT22;8060;50.948;3.146;2023-04-16T15:18:14;18.80;99.90
15922;DHT22;8060;50.948;3.146;2023-04-16T15:20:44;18.60;99.90
15922;DHT22;8060;50.948;3.146;2023-04-16T15:23:12;18.40;99.90
15922;DHT22;8060;50.948;3.146;2023-04-16T15:25:40;18.30;99.90
15922;DHT22;8060;50.948;3.146;2023-04-16T15:28:09;18.40;99.90
15922;DHT22;8060;50.948;3.146;2023-04-16T15:30:37;18.30;99.90
15922;DHT22;8060;50.948;3.146;2023-04-16T15:33:06;18.20;99.90
15922;DHT22;8060;50.948;3.146;2023-04-16T15:35:35;18.10;99.90
15922;DHT22;8060;50.948;3.146;2023-04-16T15:38:06;18.00;99.90
15922;DHT22;8060;50.948;3.146;2023-04-16T15:40:34;18.20;99.90
15922;DHT22;8060;50.948;3.146;2023-04-16T15:43:02;18.00;99.90
15922;DHT22;8060;50.948;3.146;2023-04-16T15:45:30;18.00;99.90
15922;DHT22;8060;50.948;3.146;2023-04-16T15:47:58;17.80;99.90
15922;DHT22;8060;50.948;3.146;2023-04-16T15:50:26;17.90;99.90
15922;DHT22;8060;50.948;3.146;2023-04-16T15:52:55;17.80;99.90
15922;DHT22;8060;50.948;3.146;2023-04-16T15:55:24;17.80;99.90
15922;DHT22;8060;50.948;3.146;2023-04-16T15:57:53;17.60;99.90
15922;DHT22;8060;50.948;3.146;2023-04-16T16:00:21;17.60;99.90
15922;DHT22;8060;50.948;3.146;2023-04-16T16:02:51;17.70;99.90
15922;DHT22;8060;50.948;3.146;2023-04-16T16:05:19;17.70;99.90
15922;DHT22;8060;50.948;3.146;2023-04-16T16:07:54;17.70;99.90
15922;DHT22;8060;50.948;3.146;2023-04-16T16:10:25;17.60;99.90
15922;DHT22;8060;50.948;3.146;2023-04-16T16:12:53;17.10;99.90
15922;DHT22;8060;50.948;3.146;2023-04-16T16:15:22;16.90;99.90
15922;DHT22;8060;50.948;3.146;2023-04-16T16:17:51;16.90;99.90
15922;DHT22;8060;50.948;3.146;2023-04-16T16:20:19;16.80;99.90
15922;DHT22;8060;50.948;3.146;2023-04-16T16:22:48;16.70;99.90
15922;DHT22;8060;50.948;3.146;2023-04-16T16:25:19;16.70;99.90
15922;DHT22;8060;50.948;3.146;2023-04-16T16:27:49;16.50;99.90
15922;DHT22;8060;50.948;3.146;2023-04-16T16:30:18;16.50;99.90
15922;DHT22;8060;50.948;3.146;2023-04-16T16:32:46;16.60;99.90
15922;DHT22;8060;50.948;3.146;2023-04-16T16:35:14;16.50;99.90
15922;DHT22;8060;50.948;3.146;2023-04-16T16:37:42;16.50;99.90
15922;DHT22;8060;50.948;3.146;2023-04-16T16:40:10;16.50;99.90
15922;DHT22;8060;50.948;3.146;2023-04-16T16:42:39;16.50;99.90
15922;DHT22;8060;50.948;3.146;2023-04-16T16:45:09;16.30;99.90
15922;DHT22;8060;50.948;3.146;2023-04-16T16:47:37;16.50;99.90
15922;DHT22;8060;50.948;3.146;2023-04-16T16:50:07;16.50;99.90
15922;DHT22;8060;50.948;3.146;2023-04-16T16:52:37;16.50;99.90
15922;DHT22;8060;50.948;3.146;2023-04-16T16:55:06;16.20;99.90
15922;DHT22;8060;50.948;3.146;2023-04-16T16:57:36;16.00;99.90
15922;DHT22;8060;50.948;3.146;2023-04-16T17:00:06;15.90;99.90
15922;DHT22;8060;50.948;3.146;2023-04-16T17:02:41;15.90;99.90
15922;DHT22;8060;50.948;3.146;2023-04-16T17:05:10;15.90;99.90
15922;DHT22;8060;50.948;3.146;2023-04-16T17:07:38;15.80;99.90
15922;DHT22;8060;50.948;3.146;2023-04-16T17:10:07;15.60;99.90
15922;DHT22;8060;50.948;3.146;2023-04-16T17:12:36;15.70;99.90
15922;DHT22;8060;50.948;3.146;2023-04-16T17:15:05;15.70;99.90
15922;DHT22;8060;50.948;3.146;2023-04-16T17:17:34;15.60;99.90
15922;DHT22;8060;50.948;3.146;2023-04-16T17:20:05;15.60;99.90
15922;DHT22;8060;50.948;3.146;2023-04-16T17:22:36;15.70;99.90
15922;DHT22;8060;50.948;3.146;2023-04-16T17:25:05;15.80;99.90
15922;DHT22;8060;50.948;3.146;2023-04-16T17:27:34;15.70;99.90
15922;DHT22;8060;50.948;3.146;2023-04-16T17:30:03;15.60;99.90
15922;DHT22;8060;50.948;3.146;2023-04-16T17:32:32;15.60;99.90
15922;DHT22;8060;50.948;3.146;2023-04-16T17:35:00;15.60;99.90
15922;DHT22;8060;50.948;3.146;2023-04-16T17:37:31;15.50;99.90
15922;DHT22;8060;50.948;3.146;2023-04-16T17:40:00;15.40;99.90
15922;DHT22;8060;50.948;3.146;2023-04-16T17:42:33;15.30;99.90
15922;DHT22;8060;50.948;3.146;2023-04-16T17:45:01;15.00;99.90
15922;DHT22;8060;50.948;3.146;2023-04-16T17:47:29;14.90;99.90
15922;DHT22;8060;50.948;3.146;2023-04-16T17:49:58;14.80;99.90
15922;DHT22;8060;50.948;3.146;2023-04-16T17:52:26;14.70;99.90
15922;DHT22;8060;50.948;3.146;2023-04-16T17:54:55;14.50;99.90
15922;DHT22;8060;50.948;3.146;2023-04-16T17:57:27;14.30;99.90
15922;DHT22;8060;50.948;3.146;2023-04-16T17:59:55;14.30;99.90
15922;DHT22;8060;50.948;3.146;2023-04-16T18:02:23;14.20;99.90
15922;DHT22;8060;50.948;3.146;2023-04-16T18:04:52;14.20;99.90
15922;DHT22;8060;50.948;3.146;2023-04-16T18:07:20;14.10;99.90
